avis per tempestes more information blitzortung!


avis per Pluja more information rain snow radar


Visita la nostra xarxa de llocs de meteo:

Template documentation
and downloads

And another site



Thunderstorms From: 20-07-2018 17:00 Until: 21-07-2018 01:59 warning for: Thunderstorms Level: Yellow info button
Rain From: 20-07-2018 17:00 Until: 21-07-2018 01:59 warning for: Rain Level: Yellow info button

Pagina Historial Weather Underground text

Diari Resum January 11, 2016 Unitats:  Mètric    Imperial   Tant
« Previous Dia
SegĂźent Dia »
Diari Setmana Mensual Anual Personalitzada
  Maxima: Minima: Media:
Temperatura: -17.8 °C -12.1 °C -9.9 °C
Punt de rosada: -17.8 °C -19.3 °C -17.7 °C
Humitat: Humidity % 31 % 38 %
Wind Speed: 0 km/h 9 km/h 18.2 km/h
RĂ fegues de vent: 0 km/h - -
Vent:- - WSW
Pression baro: 0 hPa 34063.2 hPa -
Precipitacions: 0 mm    
Historical Graphs
 
 
Dades de taula per January 11, 2016
Temps Temperatura Punt de rosada Pression baro Vent Wind Speed RĂ fegues de vent Humitat Rainfall Rate (Hourly)
-17.8 °C -17.8 °C 0 hPa Calm     Humidity % 0 mm
11:21 -9.9 °C -14.1 °C 34130.9 hPa WSW 17.9 km/h 17.9 km/h 60 % 0 mm
11:31 -9.8 °C -14.3 °C 34130.9 hPa WSW 23.8 km/h 23.8 km/h 58 % 0 mm
11:36 -9.7 °C -14.3 °C 34130.9 hPa SW 23.8 km/h 23.8 km/h 57 % 0 mm
11:41 -9.6 °C -14.4 °C 34097 hPa SW 20.9 km/h 20.9 km/h 56 % 0 mm
11:46 -9.5 °C -14.5 °C 34097 hPa WSW 27.2 km/h 27.2 km/h 55 % 0 mm
11:51 -9.6 °C -14.8 °C 34097 hPa West 26.9 km/h 26.9 km/h 53 % 0 mm
11:56 -9.6 °C -15.1 °C 34097 hPa WSW 26.9 km/h 26.9 km/h 51 % 0 mm
12:01 -9.6 °C -15.2 °C 34097 hPa West 23.8 km/h 23.8 km/h 51 % 0 mm
12:06 -9.6 °C -15.2 °C 34097 hPa SW 32.8 km/h 32.8 km/h 51 % 0 mm
12:11 -9.4 °C -15.2 °C 34130.9 hPa WSW 20.9 km/h 20.9 km/h 50 % 0 mm
12:16 -9.3 °C -15.2 °C 34130.9 hPa WSW 30.6 km/h 30.6 km/h 49 % 0 mm
12:21 -9.1 °C -15.1 °C 34130.9 hPa WSW 25.1 km/h 25.1 km/h 49 % 0 mm
12:26 -9 °C -15.3 °C 34097 hPa SSW 32.8 km/h 32.8 km/h 47 % 0 mm
12:31 -8.7 °C -14.8 °C 34097 hPa WSW 17.9 km/h 17.9 km/h 48 % 0 mm
12:36 -8.7 °C -15.1 °C 34097 hPa West 29.8 km/h 29.8 km/h 47 % 0 mm
12:41 -8.6 °C -15.1 °C 34097 hPa NNW 25.9 km/h 25.9 km/h 46 % 0 mm
12:46 -8.6 °C -15.2 °C 34097 hPa SW 32.8 km/h 32.8 km/h 45 % 0 mm
12:51 -8.5 °C -15.2 °C 34097 hPa SW 20.9 km/h 20.9 km/h 45 % 0 mm
12:56 -8.4 °C -15.2 °C 34097 hPa WSW 33.6 km/h 33.6 km/h 44 % 0 mm
13:01 -8.4 °C -15.4 °C 34097 hPa WSW 32.8 km/h 32.8 km/h 43 % 0 mm
13:06 -8.4 °C -15.4 °C 34097 hPa WNW 26.9 km/h 26.9 km/h 43 % 0 mm
13:11 -8.5 °C -15.5 °C 34097 hPa SW 29.8 km/h 29.8 km/h 43 % 0 mm
13:16 -8.4 °C -15.6 °C 34097 hPa WSW 35.7 km/h 35.7 km/h 42 % 0 mm
13:21 -8.3 °C -15.7 °C 34097 hPa SSW 35.7 km/h 35.7 km/h 41 % 0 mm
13:26 -8.3 °C -15.7 °C 34097 hPa WSW 26.9 km/h 26.9 km/h 41 % 0 mm
13:31 -8.2 °C -15.9 °C 34097 hPa SW 26.9 km/h 26.9 km/h 40 % 0 mm
13:36 -8.2 °C -15.8 °C 34097 hPa WSW 29.8 km/h 29.8 km/h 40 % 0 mm
13:41 -8.1 °C -15.9 °C 34097 hPa West 35.7 km/h 35.7 km/h 39 % 0 mm
13:46 -8.2 °C -16.2 °C 34097 hPa WSW 18.3 km/h 20.3 km/h 38 % 0 mm
13:51 -8.1 °C -16.3 °C 34097 hPa WSW 18.3 km/h 20.3 km/h 37 % 0 mm
13:56 -8.1 °C -16.6 °C 34097 hPa West 17.9 km/h 20.3 km/h 36 % 0 mm
14:01 -8.2 °C -16.9 °C 34097 hPa WSW 15 km/h 17.4 km/h 35 % 0 mm
14:06 -8.3 °C -16.9 °C 34097 hPa WSW 9 km/h 17.4 km/h 35 % 0 mm
14:11 -8.3 °C -16.9 °C 34063.2 hPa WSW 15 km/h 23.8 km/h 35 % 0 mm
14:16 -8.3 °C -17 °C 34063.2 hPa WSW 15 km/h 23.8 km/h 35 % 0 mm
14:21 -8.5 °C -17.1 °C 34063.2 hPa WSW 15 km/h 23.8 km/h 35 % 0 mm
14:26 -8.6 °C -17.4 °C 34097 hPa WSW 15 km/h 23.8 km/h 34 % 0 mm
14:31 -8.7 °C -17.5 °C 34097 hPa WSW 17.9 km/h 25.9 km/h 34 % 0 mm
14:36 -8.7 °C -17.5 °C 34097 hPa WSW 17.9 km/h 25.9 km/h 34 % 0 mm
14:41 -8.6 °C -17.4 °C 34097 hPa West 23.8 km/h 23.8 km/h 34 % 0 mm
14:51 -8.5 °C -17.4 °C 34097 hPa SW 20.9 km/h 20.9 km/h 34 % 0 mm
14:56 -8.6 °C -17.4 °C 34097 hPa SW 20.9 km/h 20.9 km/h 34 % 0 mm
15:01 -8.4 °C -17.3 °C 34097 hPa SW 20.9 km/h 20.9 km/h 34 % 0 mm
15:06 -8.4 °C -17.5 °C 34097 hPa West 32.8 km/h 32.8 km/h 33 % 0 mm
15:11 -8.4 °C -17.5 °C 34097 hPa West 34.1 km/h 34.1 km/h 33 % 0 mm
15:16 -8.4 °C -17.5 °C 34097 hPa WNW 23.8 km/h 23.8 km/h 33 % 0 mm
15:26 -8.4 °C -17.6 °C 34097 hPa West 23.8 km/h 23.8 km/h 33 % 0 mm
15:31 -8.4 °C -17.6 °C 34097 hPa South 15 km/h 15 km/h 33 % 0 mm
15:36 -8.5 °C -17.6 °C 34097 hPa WSW 23.8 km/h 23.8 km/h 33 % 0 mm
15:41 -8.5 °C -17.6 °C 34130.9 hPa West 44.7 km/h 44.7 km/h 33 % 0 mm
15:46 -8.4 °C -17.8 °C 34130.9 hPa WSW 18.3 km/h 18.3 km/h 32 % 0 mm
15:51 -8.5 °C -17.8 °C 34130.9 hPa West 33.6 km/h 33.6 km/h 32 % 0 mm
15:56 -8.7 °C -18 °C 34130.9 hPa WSW 32.8 km/h 32.8 km/h 32 % 0 mm
16:01 -8.7 °C -18 °C 34130.9 hPa WSW 23.8 km/h 23.8 km/h 32 % 0 mm
16:06 -8.7 °C -17.9 °C 34130.9 hPa WNW 26.9 km/h 26.9 km/h 32 % 0 mm
16:11 -8.6 °C -17.9 °C 34130.9 hPa West 20.9 km/h 20.9 km/h 32 % 0 mm
16:22 -8.7 °C -18.3 °C 34130.9 hPa West 23.8 km/h 23.8 km/h 31 % 0 mm
16:27 -8.8 °C -18.3 °C 34130.9 hPa SW 38.8 km/h 38.8 km/h 31 % 0 mm
16:32 -8.8 °C -18.4 °C 34130.9 hPa WSW 35.7 km/h 35.7 km/h 31 % 0 mm
16:37 -8.9 °C -18.4 °C 34130.9 hPa WSW 20.9 km/h 20.9 km/h 31 % 0 mm
16:42 -8.9 °C -18.2 °C 34130.9 hPa WSW 17.9 km/h 17.9 km/h 32 % 0 mm
16:47 -8.9 °C -18.2 °C 34130.9 hPa WSW 20.9 km/h 20.9 km/h 32 % 0 mm
16:52 -9 °C -18.3 °C 34130.9 hPa SW 15 km/h 15 km/h 32 % 0 mm
16:57 -9 °C -18.3 °C 34164.7 hPa WSW 15 km/h 15 km/h 32 % 0 mm
17:02 -9.1 °C -18.4 °C 34164.7 hPa WSW 19.6 km/h 19.6 km/h 32 % 0 mm
17:07 -9.2 °C -18.4 °C 34164.7 hPa WSW 15.6 km/h 15.6 km/h 32 % 0 mm
17:12 -9.3 °C -18.5 °C 34164.7 hPa WSW 29.8 km/h 29.8 km/h 32 % 0 mm
17:17 -9.4 °C -18.6 °C 34164.7 hPa SW 12.7 km/h 12.7 km/h 32 % 0 mm
17:22 -9.5 °C -18.7 °C 34164.7 hPa SSW 24.3 km/h 24.3 km/h 32 % 0 mm
17:27 -9.6 °C -18.8 °C 34198.6 hPa West 9.3 km/h 9.3 km/h 32 % 0 mm
17:32 -9.7 °C -18.9 °C 34198.6 hPa WSW 17.9 km/h 17.9 km/h 32 % 0 mm
17:37 -9.8 °C -19 °C 34198.6 hPa West 15.3 km/h 15.3 km/h 32 % 0 mm
17:42 -9.9 °C -19.1 °C 34164.7 hPa WSW 15 km/h 15 km/h 32 % 0 mm
17:47 -10 °C -19.1 °C 34164.7 hPa SSW 15 km/h 16.1 km/h 32 % 0 mm
17:52 -10.1 °C -19.2 °C 34164.7 hPa WSW 17.9 km/h 17.9 km/h 32 % 0 mm
18:02 -10.2 °C -19.1 °C 34198.6 hPa WSW 26.9 km/h 26.9 km/h 33 % 0 mm
18:07 -10.2 °C -19.1 °C 34198.6 hPa WSW 29.8 km/h 29.8 km/h 33 % 0 mm
18:12 -10.2 °C -19.1 °C 34198.6 hPa SW 12.7 km/h 12.7 km/h 33 % 0 mm
18:17 -10.3 °C -19.2 °C 34198.6 hPa SW 9.8 km/h 12.7 km/h 33 % 0 mm
18:22 -10.3 °C -19.2 °C 34198.6 hPa West 17.9 km/h 17.9 km/h 33 % 0 mm
18:27 -10.4 °C -19.3 °C 34222.3 hPa WSW 17.9 km/h 17.9 km/h 33 % 0 mm
18:32 -10.4 °C -19.3 °C 34222.3 hPa West 9.3 km/h 14.5 km/h 33 % 0 mm
18:37 -10.5 °C -19.3 °C 34222.3 hPa WSW 9.8 km/h 11.1 km/h 33 % 0 mm
18:42 -10.5 °C -19.1 °C 34222.3 hPa WSW 9.8 km/h 11.1 km/h 34 % 0 mm
18:47 -10.6 °C -19.2 °C 34222.3 hPa WSW 9.8 km/h 11.1 km/h 34 % 0 mm
18:52 -10.6 °C -19.2 °C 34222.3 hPa WSW 9.8 km/h 11.1 km/h 34 % 0 mm
18:57 -10.6 °C -19.2 °C 34222.3 hPa WSW 9.8 km/h 11.1 km/h 34 % 0 mm
19:02 -10.7 °C -19.3 °C 34222.3 hPa WSW 9.8 km/h 11.1 km/h 34 % 0 mm
19:07 -10.7 °C -19.1 °C 34222.3 hPa WSW 9.8 km/h 11.1 km/h 35 % 0 mm
19:12 -10.7 °C -19.1 °C 34222.3 hPa WSW 9.8 km/h 11.1 km/h 35 % 0 mm
19:22 -10.8 °C -18.9 °C 34222.3 hPa WSW 9.8 km/h 11.1 km/h 36 % 0 mm
19:27 -10.8 °C -18.9 °C 34256.2 hPa WSW 9.8 km/h 11.1 km/h 36 % 0 mm
19:32 -10.8 °C -19 °C 34256.2 hPa WSW 9.8 km/h 11.1 km/h 36 % 0 mm
19:37 -10.9 °C -19.1 °C 34256.2 hPa WSW 9.8 km/h 11.1 km/h 36 % 0 mm
19:42 -11 °C -18.9 °C 34256.2 hPa WSW 9.8 km/h 11.1 km/h 37 % 0 mm
19:47 -11 °C -18.9 °C 34256.2 hPa WSW 9.8 km/h 11.1 km/h 37 % 0 mm
19:52 -11.1 °C -19 °C 34256.2 hPa WSW 9.8 km/h 11.1 km/h 37 % 0 mm
19:57 -11.1 °C -18.8 °C 34256.2 hPa WSW 9.8 km/h 11.1 km/h 38 % 0 mm
20:07 -11.2 °C -18.9 °C 34256.2 hPa WSW 9.8 km/h 11.1 km/h 38 % 0 mm
20:12 -11.1 °C -18.8 °C 34293.4 hPa WSW 9.8 km/h 11.1 km/h 38 % 0 mm
20:17 -11.2 °C -18.7 °C 34293.4 hPa WSW 9.8 km/h 11.1 km/h 39 % 0 mm
20:27 -11.2 °C -18.7 °C 34293.4 hPa WSW 9.8 km/h 11.1 km/h 39 % 0 mm
20:32 -11.2 °C -18.7 °C 34293.4 hPa WSW 9.8 km/h 11.1 km/h 39 % 0 mm
20:42 -11.3 °C -18.8 °C 34293.4 hPa WSW 9.8 km/h 11.1 km/h 39 % 0 mm
20:47 -11.3 °C -18.7 °C 34293.4 hPa WSW 9.8 km/h 11.1 km/h 40 % 0 mm
20:53 -11.4 °C -18.7 °C 34293.4 hPa WSW 9.8 km/h 11.1 km/h 40 % 0 mm
20:58 -11.4 °C -18.7 °C 34293.4 hPa WSW 9.8 km/h 11.1 km/h 40 % 0 mm
21:03 -11.4 °C -18.7 °C 34293.4 hPa WSW 9.8 km/h 11.1 km/h 40 % 0 mm
21:08 -11.5 °C -18.8 °C 34293.4 hPa WSW 9.8 km/h 11.1 km/h 40 % 0 mm
21:13 -11.6 °C -18.8 °C 34293.4 hPa WSW 9.8 km/h 11.1 km/h 40 % 0 mm
21:23 -11.6 °C -18.7 °C 34293.4 hPa WSW 9.8 km/h 11.1 km/h 41 % 0 mm
21:28 -11.6 °C -18.7 °C 34293.4 hPa WSW 9.8 km/h 11.1 km/h 41 % 0 mm
21:33 -11.7 °C -18.8 °C 34293.4 hPa WSW 9.8 km/h 11.1 km/h 41 % 0 mm
21:38 -11.7 °C -18.8 °C 34293.4 hPa WSW 9.8 km/h 11.1 km/h 41 % 0 mm
21:43 -11.7 °C -18.8 °C 34327.3 hPa WSW 9.8 km/h 11.1 km/h 41 % 0 mm
21:48 -11.7 °C -18.8 °C 34327.3 hPa WSW 9.8 km/h 11.1 km/h 41 % 0 mm
21:53 -11.7 °C -18.8 °C 34327.3 hPa WSW 9.8 km/h 11.1 km/h 41 % 0 mm
21:58 -11.7 °C -18.8 °C 34327.3 hPa WSW 9.8 km/h 11.1 km/h 41 % 0 mm
22:13 -11.8 °C -18.7 °C 34327.3 hPa WSW 9.8 km/h 11.1 km/h 42 % 0 mm
22:18 -11.8 °C -18.8 °C 34327.3 hPa WSW 9.8 km/h 11.1 km/h 41 % 0 mm
22:23 -11.8 °C -18.9 °C 34327.3 hPa WSW 9.8 km/h 11.1 km/h 41 % 0 mm
22:28 -11.8 °C -18.9 °C 34327.3 hPa WSW 9.8 km/h 11.1 km/h 41 % 0 mm
22:38 -11.9 °C -19 °C 34327.3 hPa WSW 9.8 km/h 11.1 km/h 41 % 0 mm
22:43 -12 °C -19.1 °C 34327.3 hPa WSW 9.8 km/h 11.1 km/h 41 % 0 mm
22:53 -12.1 °C -19 °C 34327.3 hPa WSW 9.8 km/h 11.1 km/h 42 % 0 mm
22:58 -12.1 °C -19 °C 34327.3 hPa WSW 9.8 km/h 11.1 km/h 42 % 0 mm
23:03 -12.1 °C -18.9 °C 34327.3 hPa WSW 9.8 km/h 11.1 km/h 42 % 0 mm
23:08 -12.1 °C -19 °C 34327.3 hPa WSW 9.8 km/h 11.1 km/h 42 % 0 mm
23:13 -12.1 °C -18.9 °C 34327.3 hPa WSW 9.8 km/h 11.1 km/h 42 % 0 mm
Meteo Sesrovires
Elogis d' Weather Underground - 2 mb

Guio original per  Jim McMurry - jmcmurry@mwt.net Adaptat per a la plantilla per  Wim van der Kuil - Leuven-Template.eu

Trobareu la nostra informacio del temps tambe a:

Weather Underground

AWEKAS